Time;durP1;ratioP1;P1;durP2;ratioP2;P2;SDS_P1;SDS_P2;PMS_P1;PMS_P2;Temp;Humidity;BMP_temperature;BMP_pressure;BME280_temperature;BME280_humidity;BME280_pressure;Samples;Min_cycle;Max_cycle;Signal;HPM_P1;HPM_P2
2022/10/01 05:30:09;;;;;;;4.93;2.90;;;12.80;99.90;;;;;;5024480;23;20480;-77
2022/10/01 05:32:35;;;;;;;12.25;3.35;;;12.80;99.90;;;;;;4922449;29;20031;-77
2022/10/01 05:35:01;;;;;;;16.17;3.83;;;12.90;99.90;;;;;;4919572;29;20459;-77
2022/10/01 05:37:27;;;;;;;19.77;3.55;;;12.70;99.90;;;;;;4915456;29;20034;-77
2022/10/01 05:39:53;;;;;;;10.77;3.30;;;13.10;99.90;;;;;;4895469;29;20114;-77
2022/10/01 05:42:18;;;;;;;10.43;3.72;;;13.10;99.90;;;;;;4900059;29;20067;-77
2022/10/01 05:44:48;;;;;;;19.48;4.35;;;13.20;99.90;;;;;;4918075;29;20024;-77
2022/10/01 05:47:15;;;;;;;;;;;13.10;99.90;;;;;;4917764;29;20036;-77
2022/10/01 05:49:43;;;;;;;13.23;2.67;;;13.00;99.90;;;;;;4914779;29;20011;-77
2022/10/01 05:52:10;;;;;;;11.75;2.75;;;13.30;99.90;;;;;;4936377;29;20027;-77
2022/10/01 05:54:36;;;;;;;19.15;3.45;;;13.30;99.90;;;;;;4930175;29;20032;-77
2022/10/01 05:57:02;;;;;;;17.00;2.80;;;13.40;99.90;;;;;;4917033;29;20043;-76
2022/10/01 05:59:28;;;;;;;16.77;2.78;;;13.10;99.90;;;;;;4917027;29;20630;-77
2022/10/01 06:01:54;;;;;;;15.15;2.38;;;13.30;99.90;;;;;;4916984;29;20518;-77
2022/10/01 06:04:19;;;;;;;15.48;2.55;;;13.00;99.90;;;;;;4917908;29;20031;-76
2022/10/01 06:06:45;;;;;;;16.38;2.60;;;13.60;99.90;;;;;;4899629;29;20464;-76
2022/10/01 06:09:11;;;;;;;18.20;2.67;;;13.40;99.90;;;;;;4917101;29;20365;-76
2022/10/01 06:11:38;;;;;;;18.38;2.17;;;13.50;99.90;;;;;;4916975;29;20045;-76
2022/10/01 06:14:04;;;;;;;16.20;2.83;;;13.40;99.90;;;;;;4916804;29;20039;-76
2022/10/01 06:16:29;;;;;;;15.18;2.88;;;13.30;99.90;;;;;;4917136;29;20040;-76
2022/10/01 06:18:56;;;;;;;11.68;2.60;;;13.60;99.90;;;;;;4935855;29;20059;-76
2022/10/01 06:21:25;;;;;;;14.02;1.92;;;13.40;99.90;;;;;;4935782;29;20122;-77
2022/10/01 06:23:51;;;;;;;7.77;1.60;;;13.50;99.90;;;;;;4935846;29;20154;-77
2022/10/01 06:26:18;;;;;;;5.05;1.20;;;13.40;99.90;;;;;;4921962;29;20111;-77
2022/10/01 06:28:43;;;;;;;3.75;1.00;;;13.10;99.90;;;;;;4916834;29;20046;-76
2022/10/01 06:31:09;;;;;;;8.70;1.80;;;12.90;99.90;;;;;;4916554;29;20048;-76
2022/10/01 06:33:34;;;;;;;10.43;2.30;;;12.90;99.90;;;;;;4916636;29;20107;-77
2022/10/01 06:36:02;;;;;;;8.30;1.75;;;12.80;99.90;;;;;;4916553;29;20110;-78
2022/10/01 06:38:27;;;;;;;8.50;1.60;;;12.70;99.90;;;;;;4916660;29;20060;-78
2022/10/01 06:41:00;;;;;;;12.00;1.95;;;12.30;99.90;;;;;;4916993;29;20146;-76
2022/10/01 06:43:28;;;;;;;12.52;2.78;;;12.30;99.90;;;;;;4916742;29;20558;-77
2022/10/01 06:45:55;;;;;;;10.50;2.22;;;12.20;99.90;;;;;;4916494;29;20024;-77
2022/10/01 06:48:22;;;;;;;12.48;2.58;;;12.60;99.90;;;;;;4897743;29;20115;-76
2022/10/01 06:50:49;;;;;;;10.18;2.38;;;12.60;99.90;;;;;;4897899;29;20128;-76
2022/10/01 06:53:16;;;;;;;8.77;2.38;;;12.70;99.90;;;;;;4897964;29;20381;-77
2022/10/01 06:55:42;;;;;;;36.40;3.17;;;13.00;99.90;;;;;;4885727;29;20024;-78
2022/10/01 06:58:19;;;;;;;14.70;2.63;;;13.30;99.90;;;;;;4907191;29;20044;-77
2022/10/01 07:00:45;;;;;;;23.83;3.10;;;16.70;99.90;;;;;;4898635;29;20032;-77
2022/10/01 07:03:14;;;;;;;11.18;2.78;;;19.20;99.90;;;;;;4914090;29;20099;-77
2022/10/01 07:05:40;;;;;;;57.33;4.80;;;22.00;99.90;;;;;;4916308;29;20096;-78
2022/10/01 07:08:06;;;;;;;15.50;2.75;;;22.60;99.90;;;;;;4919511;29;20468;-77
2022/10/01 07:10:33;;;;;;;11.43;2.60;;;23.70;99.90;;;;;;4920010;29;20115;-78
2022/10/01 07:13:10;;;;;;;11.70;2.40;;;24.40;99.90;;;;;;4919880;29;20080;-78
2022/10/01 07:15:38;;;;;;;9.75;2.25;;;24.70;99.90;;;;;;4902930;29;20040;-78
2022/10/01 07:18:04;;;;;;;9.65;1.73;;;26.80;99.90;;;;;;4930463;29;20387;-78
2022/10/01 07:20:34;;;;;;;8.85;1.80;;;27.50;99.90;;;;;;4923947;29;20502;-78
2022/10/01 07:22:59;;;;;;;7.97;2.10;;;27.60;99.90;;;;;;4902488;29;20139;-78
2022/10/01 07:25:26;;;;;;;9.02;1.60;;;28.70;99.90;;;;;;4919720;29;20120;-78
2022/10/01 07:27:59;;;;;;;9.73;1.63;;;29.20;99.90;;;;;;4919388;29;20028;-78
2022/10/01 07:30:26;;;;;;;11.77;1.77;;;30.70;99.90;;;;;;4919124;29;20172;-78
2022/10/01 07:32:53;;;;;;;13.82;2.40;;;29.80;99.90;;;;;;4919420;29;20084;-78
2022/10/01 07:35:19;;;;;;;12.50;1.92;;;26.20;99.90;;;;;;4919244;29;20036;-77
2022/10/01 07:37:49;;;;;;;9.57;1.88;;;23.90;99.90;;;;;;4919602;29;20111;-78
2022/10/01 07:40:15;;;;;;;8.35;2.03;;;22.70;99.90;;;;;;4900730;29;20036;-78
2022/10/01 07:42:41;;;;;;;10.02;1.95;;;22.90;99.90;;;;;;4912861;29;20036;-78
2022/10/01 07:45:08;;;;;;;12.45;2.40;;;22.70;99.90;;;;;;4901609;29;20416;-78
2022/10/01 07:47:33;;;;;;;8.52;1.88;;;27.20;99.90;;;;;;4901780;29;20032;-78
2022/10/01 07:49:59;;;;;;;9.48;1.73;;;24.90;99.90;;;;;;4918973;29;20032;-78
2022/10/01 07:52:24;;;;;;;9.43;1.80;;;22.80;99.90;;;;;;4918857;29;20512;-78
2022/10/01 07:54:50;;;;;;;5.60;1.30;;;22.00;99.90;;;;;;4918874;29;20028;-78
2022/10/01 07:57:15;;;;;;;7.47;1.73;;;21.40;99.90;;;;;;4919404;29;20031;-77
2022/10/01 07:59:42;;;;;;;6.72;1.70;;;20.30;99.90;;;;;;4919398;29;20020;-76
2022/10/01 08:02:15;;;;;;;18.35;1.85;;;18.70;99.90;;;;;;4919043;29;20034;-76
2022/10/01 08:07:25;;;;;;;7.22;1.40;;;18.00;99.90;;;;;;4918799;29;20035;-76
2022/10/01 08:09:51;;;;;;;8.52;1.60;;;18.00;99.90;;;;;;4918749;29;20036;-76
2022/10/01 08:12:18;;;;;;;11.05;1.48;;;17.70;99.90;;;;;;4918884;29;20032;-77
2022/10/01 08:14:44;;;;;;;10.05;2.03;;;17.50;99.90;;;;;;4919112;29;20020;-76
2022/10/01 08:17:10;;;;;;;6.32;1.30;;;17.30;99.90;;;;;;4919023;29;20040;-76
2022/10/01 08:19:35;;;;;;;4.00;1.38;;;17.60;99.90;;;;;;4917432;29;20111;-76
2022/10/01 08:22:01;;;;;;;6.72;1.50;;;22.00;99.90;;;;;;4918747;29;20043;-76
2022/10/01 08:24:27;;;;;;;6.28;1.30;;;20.10;99.90;;;;;;4918942;29;20032;-76
2022/10/01 08:26:56;;;;;;;18.42;1.92;;;19.30;99.90;;;;;;4918154;29;20535;-77
2022/10/01 08:29:22;;;;;;;7.03;1.60;;;18.40;99.90;;;;;;4901852;29;20499;-76
2022/10/01 08:31:48;;;;;;;7.65;1.80;;;18.10;99.90;;;;;;4935518;29;20043;-76
2022/10/01 08:34:14;;;;;;;6.82;1.02;;;17.20;99.90;;;;;;4937096;29;20016;-76
2022/10/01 08:36:40;;;;;;;6.35;1.27;;;16.90;99.90;;;;;;4937363;29;20040;-77
2022/10/01 08:39:06;;;;;;;9.68;1.40;;;17.20;99.90;;;;;;4922111;29;20104;-76
2022/10/01 08:42:05;;;;;;;8.93;1.35;;;17.90;99.90;;;;;;4917058;29;20028;-76
2022/10/01 08:44:44;;;;;;;14.68;2.22;;;17.80;99.90;;;;;;4917021;29;20032;-76
2022/10/01 08:47:18;;;;;;;8.25;1.70;;;17.60;99.90;;;;;;4916881;29;20040;-77
2022/10/01 08:49:50;;;;;;;5.28;1.60;;;18.30;99.90;;;;;;4916977;29;20372;-76
2022/10/01 08:52:29;;;;;;;6.15;1.40;;;19.00;99.90;;;;;;4912175;29;20043;-76
2022/10/01 08:55:15;;;;;;;8.65;1.42;;;18.00;99.90;;;;;;4899424;29;20036;-76
2022/10/01 08:57:46;;;;;;;8.13;1.60;;;18.70;99.90;;;;;;4901825;29;20377;-76
2022/10/01 09:00:16;;;;;;;7.72;1.63;;;19.30;99.90;;;;;;4923859;29;20031;-76
2022/10/01 09:02:45;;;;;;;10.75;2.00;;;22.70;99.90;;;;;;4934708;29;20387;-76
2022/10/01 09:05:35;;;;;;;5.10;1.20;;;20.60;99.90;;;;;;4932030;29;20415;-76
2022/10/01 09:08:15;;;;;;;;;;;20.70;99.90;;;;;;4917257;29;20035;-76
2022/10/01 09:11:14;;;;;;;7.50;1.63;;;20.50;99.90;;;;;;4916693;29;19907;-76
2022/10/01 09:13:58;;;;;;;6.25;1.08;;;18.80;99.90;;;;;;4913051;29;20187;-77
2022/10/01 09:16:45;;;;;;;3.25;0.60;;;16.70;99.90;;;;;;4936920;29;20065;-76
2022/10/01 09:19:33;;;;;;;2.13;0.40;;;16.00;99.90;;;;;;4910842;29;20465;-76
2022/10/01 09:22:05;;;;;;;3.33;0.60;;;15.40;99.90;;;;;;4912886;29;20415;-76
2022/10/01 09:24:43;;;;;;;4.63;0.70;;;15.80;99.90;;;;;;4915909;29;20037;-76
2022/10/01 09:27:18;;;;;;;5.68;0.70;;;15.30;99.90;;;;;;4898459;29;20029;-76
2022/10/01 09:29:52;;;;;;;7.47;0.85;;;15.90;99.90;;;;;;4913727;29;20058;-76
2022/10/01 09:32:29;;;;;;;5.93;0.90;;;15.70;99.90;;;;;;4936672;29;20055;-76
2022/10/01 09:34:59;;;;;;;10.40;1.50;;;16.40;99.90;;;;;;4898762;29;20033;-76
2022/10/01 09:37:44;;;;;;;13.88;1.48;;;17.00;99.90;;;;;;4899020;29;20041;-76
2022/10/01 09:40:14;;;;;;;12.02;1.55;;;16.40;99.90;;;;;;4917031;29;20104;-76
2022/10/01 09:42:40;;;;;;;13.73;2.00;;;16.30;99.90;;;;;;4916513;29;20471;-76
2022/10/01 09:45:13;;;;;;;11.52;2.13;;;16.00;99.90;;;;;;4928055;29;20122;-76
2022/10/01 09:47:42;;;;;;;14.38;1.80;;;16.00;99.90;;;;;;4919451;29;20431;-76
2022/10/01 09:50:13;;;;;;;11.40;1.70;;;16.40;99.90;;;;;;4936805;29;20456;-76
2022/10/01 09:52:40;;;;;;;9.68;1.70;;;16.10;99.90;;;;;;4922263;29;20464;-76
2022/10/01 09:55:38;;;;;;;5.22;0.80;;;16.10;99.90;;;;;;4917675;29;20028;-76
2022/10/01 09:58:22;;;;;;;9.50;1.00;;;16.20;99.90;;;;;;4932796;29;20051;-75
2022/10/01 10:00:52;;;;;;;6.20;1.10;;;16.10;99.90;;;;;;4904854;29;20091;-76
2022/10/01 10:03:28;;;;;;;11.55;1.60;;;16.10;99.90;;;;;;4917054;29;20384;-76
2022/10/01 10:05:54;;;;;;;7.75;1.13;;;16.20;99.90;;;;;;4917209;29;20067;-76
2022/10/01 10:08:26;;;;;;;11.07;2.08;;;15.90;99.90;;;;;;4917095;29;20060;-76
2022/10/01 10:11:00;;;;;;;6.82;1.20;;;15.80;99.90;;;;;;4917086;29;20024;-76
2022/10/01 10:13:52;;;;;;;12.82;1.75;;;16.00;99.90;;;;;;4916813;29;20020;-76
2022/10/01 10:16:25;;;;;;;8.55;1.55;;;15.90;99.90;;;;;;4926051;29;20111;-76
2022/10/01 10:18:55;;;;;;;10.98;1.63;;;16.20;99.90;;;;;;4936008;29;20515;-76
2022/10/01 10:21:24;;;;;;;12.18;1.75;;;16.40;99.90;;;;;;4934628;29;20026;-76
2022/10/01 10:23:56;;;;;;;13.15;1.70;;;17.10;99.90;;;;;;4919282;29;20036;-76
2022/10/01 10:26:34;;;;;;;9.18;1.23;;;17.70;99.90;;;;;;4916284;29;20032;-76
2022/10/01 10:29:01;;;;;;;14.52;2.60;;;18.00;99.90;;;;;;4916438;29;20044;-76
2022/10/01 10:31:44;;;;;;;15.73;2.22;;;18.30;99.90;;;;;;4916796;29;20031;-76
2022/10/01 10:34:31;;;;;;;8.07;1.40;;;18.60;99.90;;;;;;4916828;29;20032;-76
2022/10/01 10:36:59;;;;;;;9.70;1.98;;;18.70;99.90;;;;;;4916528;29;20051;-76
2022/10/01 10:39:30;;;;;;;11.85;1.83;;;18.60;99.90;;;;;;4899883;29;20107;-76
2022/10/01 10:41:57;;;;;;;12.13;1.40;;;18.90;1.00;;;;;;4918076;29;20036;-77
2022/10/01 10:44:29;;;;;;;11.77;1.60;;;19.40;99.90;;;;;;4920585;29;20123;-77
2022/10/01 10:46:59;;;;;;;9.05;1.60;;;19.40;99.90;;;;;;4919070;29;20032;-77
2022/10/01 10:49:37;;;;;;;8.15;1.60;;;19.10;99.90;;;;;;4920405;29;20020;-77
2022/10/01 10:52:16;;;;;;;8.38;1.48;;;19.20;99.90;;;;;;4920383;29;20032;-77
2022/10/01 10:54:46;;;;;;;12.33;1.63;;;18.90;99.90;;;;;;4919131;29;20024;-77
2022/10/01 10:57:22;;;;;;;11.10;1.83;;;18.60;99.90;;;;;;4920239;29;20383;-77
2022/10/01 11:00:04;;;;;;;6.65;1.30;;;18.80;99.90;;;;;;4903294;29;20519;-77
2022/10/01 11:02:31;;;;;;;9.82;1.45;;;18.60;99.90;;;;;;4920473;29;20036;-77
2022/10/01 11:05:34;;;;;;;7.13;1.38;;;18.20;99.90;;;;;;4939196;29;20115;-77
2022/10/01 11:08:02;;;;;;;7.30;1.65;;;18.10;99.90;;;;;;4881998;29;20146;-77
2022/10/01 11:10:52;;;;;;;7.15;1.80;;;18.30;99.90;;;;;;4901196;29;20376;-77
2022/10/01 11:13:41;;;;;;;11.63;2.03;;;18.50;99.90;;;;;;4901209;29;20033;-77
2022/10/01 11:16:18;;;;;;;8.32;1.27;;;18.20;99.90;;;;;;4913611;29;20043;-77
2022/10/01 11:18:54;;;;;;;9.50;1.50;;;17.50;99.90;;;;;;4920132;29;20073;-77
2022/10/01 11:21:59;;;;;;;9.10;1.35;;;17.30;99.90;;;;;;4920274;29;20032;-77
2022/10/01 11:24:44;;;;;;;5.25;1.10;;;17.70;99.90;;;;;;4919935;29;20119;-77
2022/10/01 11:27:48;;;;;;;4.15;0.98;;;18.40;99.90;;;;;;4900983;29;20135;-77
2022/10/01 11:30:25;;;;;;;5.75;1.20;;;18.10;99.90;;;;;;4913456;29;20056;-77
2022/10/01 11:32:53;;;;;;;12.40;1.90;;;18.10;99.90;;;;;;4915660;29;20116;-78
2022/10/01 11:35:41;;;;;;;10.00;1.70;;;18.10;99.90;;;;;;4900992;29;20032;-77
2022/10/01 11:38:16;;;;;;;9.15;1.33;;;17.80;99.90;;;;;;4907644;29;20013;-78
2022/10/01 11:40:47;;;;;;;8.18;1.85;;;17.70;99.90;;;;;;4919607;29;20039;-77
2022/10/01 11:43:20;;;;;;;7.32;1.55;;;18.20;99.90;;;;;;4919427;29;20459;-78
2022/10/01 11:45:51;;;;;;;8.10;1.73;;;18.30;99.90;;;;;;4919537;29;20180;-77
2022/10/01 11:48:28;;;;;;;11.95;1.80;;;19.00;99.90;;;;;;4919468;29;20024;-78
2022/10/01 11:51:00;;;;;;;14.63;2.17;;;19.10;99.90;;;;;;4919929;29;20036;-77
2022/10/01 11:53:35;;;;;;;6.63;1.30;;;18.80;99.90;;;;;;4919271;29;20036;-78
2022/10/01 11:59:28;;;;;;;5.68;1.23;;;18.90;99.90;;;;;;4919156;29;20056;-78
2022/10/01 12:02:14;;;;;;;12.10;1.80;;;18.80;99.90;;;;;;4917970;29;20032;-78
2022/10/01 12:04:49;;;;;;;11.15;2.15;;;18.70;99.90;;;;;;4919254;29;20080;-77
2022/10/01 12:07:37;;;;;;;8.90;1.80;;;18.60;99.90;;;;;;4919032;29;20051;-77
2022/10/01 12:10:29;;;;;;;8.93;2.08;;;18.50;99.90;;;;;;4918817;29;20031;-77
2022/10/01 12:13:10;;;;;;;12.68;2.13;;;18.70;99.90;;;;;;4918951;29;20079;-77
2022/10/01 12:16:00;;;;;;;10.82;2.03;;;18.70;99.90;;;;;;4907851;29;20464;-77
2022/10/01 12:18:38;;;;;;;8.23;1.48;;;18.70;99.90;;;;;;4885966;29;20126;-78
2022/10/01 12:21:11;;;;;;;12.43;1.35;;;17.90;99.90;;;;;;4928043;29;20092;-78
2022/10/01 12:23:50;;;;;;;4.03;1.00;;;18.00;99.90;;;;;;4918991;29;20028;-79
2022/10/01 12:26:37;;;;;;;5.07;0.83;;;18.00;99.90;;;;;;4919104;29;20036;-77
2022/10/01 12:29:15;;;;;;;9.05;1.50;;;18.50;99.90;;;;;;4917974;29;20488;-78
2022/10/01 12:31:50;;;;;;;11.35;1.88;;;18.90;99.90;;;;;;4905469;29;20031;-77
2022/10/01 12:34:27;;;;;;;11.15;1.98;;;19.00;99.90;;;;;;4901486;29;20052;-77
2022/10/01 12:37:14;;;;;;;9.23;1.40;;;19.10;99.90;;;;;;4918262;29;20016;-77
2022/10/01 12:39:45;;;;;;;9.38;1.15;;;18.90;99.90;;;;;;4898816;29;20028;-77
2022/10/01 12:42:41;;;;;;;8.40;1.58;;;18.40;99.90;;;;;;4914830;29;20044;-77
2022/10/01 12:45:43;;;;;;;13.43;2.08;;;18.20;99.90;;;;;;4917458;29;20059;-77
2022/10/01 12:48:19;;;;;;;11.50;1.70;;;18.30;99.90;;;;;;4917238;29;20020;-77
2022/10/01 12:51:12;;;;;;;7.55;1.50;;;18.30;99.90;;;;;;4917873;29;20017;-76
2022/10/01 12:53:50;;;;;;;7.72;1.25;;;18.30;99.90;;;;;;4917256;29;20055;-76
2022/10/01 12:56:22;;;;;;;6.95;1.63;;;18.50;99.90;;;;;;4936890;29;20035;-76
2022/10/01 12:59:05;;;;;;;20.55;2.03;;;18.40;99.90;;;;;;4920164;29;20024;-76
2022/10/01 13:01:42;;;;;;;13.57;2.38;;;18.30;99.90;;;;;;4899719;29;20032;-74
2022/10/01 13:04:08;;;;;;;14.88;1.95;;;18.30;99.90;;;;;;4898860;29;20035;-76
2022/10/01 13:07:01;;;;;;;9.73;2.20;;;18.10;99.90;;;;;;4905994;29;20040;-76
2022/10/01 13:09:41;;;;;;;7.63;1.45;;;18.10;99.90;;;;;;4913216;29;20036;-76
2022/10/01 13:12:50;;;;;;;10.52;1.73;;;17.90;78.70;;;;;;4882130;29;20060;-75
2022/10/01 13:15:35;;;;;;;9.15;1.23;;;17.40;99.90;;;;;;4898879;29;20035;-77
2022/10/01 13:18:08;;;;;;;6.13;1.20;;;17.50;99.90;;;;;;4898962;29;20029;-76
2022/10/01 13:21:15;;;;;;;10.55;1.63;;;17.50;99.90;;;;;;4936822;29;20103;-76
2022/10/01 13:23:53;;;;;;;12.15;1.77;;;17.40;99.90;;;;;;4931816;29;20423;-76
2022/10/01 13:26:35;;;;;;;8.50;1.73;;;17.50;99.90;;;;;;4927397;29;20036;-76
2022/10/01 13:29:33;;;;;;;8.38;2.05;;;17.50;99.90;;;;;;4906591;29;20040;-76
2022/10/01 13:32:03;;;;;;;11.75;1.83;;;18.10;99.90;;;;;;4911079;29;20040;-76
2022/10/01 13:34:39;;;;;;;8.88;2.00;;;18.20;99.90;;;;;;4917806;29;20083;-76
2022/10/01 13:37:30;;;;;;;14.57;1.80;;;18.30;99.90;;;;;;4900510;29;20035;-76
2022/10/01 13:39:57;;;;;;;14.13;1.90;;;18.60;99.90;;;;;;4906833;29;20055;-76
2022/10/01 13:42:44;;;;;;;10.55;1.63;;;18.30;99.90;;;;;;4917468;29;20429;-75
2022/10/01 13:45:25;;;;;;;10.55;1.30;;;18.80;63.80;;;;;;4900461;29;20036;-75
2022/10/01 13:47:50;;;;;;;14.75;2.25;;;19.40;1.00;;;;;;4898367;29;20039;-75
2022/10/01 13:50:24;;;;;;;14.68;2.03;;;19.80;4.50;;;;;;4911671;29;20024;-75
2022/10/01 13:53:12;;;;;;;16.10;2.40;;;20.20;1.00;;;;;;4900231;29;20030;-74
2022/10/01 13:55:41;;;;;;;8.95;1.73;;;20.20;1.00;;;;;;4898117;29;20051;-74
2022/10/01 13:58:29;;;;;;;8.63;1.70;;;19.40;1.00;;;;;;4916686;29;20028;-76
2022/10/01 14:00:58;;;;;;;7.55;1.27;;;19.20;89.00;;;;;;4898158;29;20035;-75
2022/10/01 14:03:34;;;;;;;14.93;2.30;;;18.50;12.60;;;;;;4898138;29;20064;-75
2022/10/01 14:06:03;;;;;;;13.00;1.63;;;18.50;77.20;;;;;;4907672;29;20032;-75
2022/10/01 14:09:08;;;;;;;9.27;2.00;;;18.20;40.70;;;;;;4913278;29;20535;-75
2022/10/01 14:17:18;;;;;;;12.73;1.83;;;17.80;99.90;;;;;;4916124;29;20039;-75
2022/10/01 14:19:51;;;;;;;11.18;1.58;;;17.80;99.90;;;;;;4916643;29;20028;-75
2022/10/01 14:22:22;;;;;;;7.85;1.70;;;17.70;99.90;;;;;;4916538;29;20037;-74
2022/10/01 14:25:06;;;;;;;9.07;1.90;;;17.60;99.90;;;;;;4919917;29;20102;-74
2022/10/01 14:27:44;;;;;;;9.55;1.73;;;17.70;99.90;;;;;;4930069;29;20039;-74
2022/10/01 14:30:19;;;;;;;13.63;2.42;;;18.10;99.90;;;;;;4919245;29;20048;-74
2022/10/01 14:33:06;;;;;;;11.15;1.52;;;17.90;99.90;;;;;;4899924;29;20036;-74
2022/10/01 14:35:32;;;;;;;10.50;1.95;;;17.30;99.90;;;;;;4917010;29;20024;-74
2022/10/01 14:38:09;;;;;;;17.10;1.95;;;17.30;99.90;;;;;;4932386;29;20591;-74
2022/10/01 14:40:38;;;;;;;9.90;1.85;;;17.20;99.90;;;;;;4933556;29;20039;-74
2022/10/01 14:43:30;;;;;;;16.98;2.05;;;17.20;99.90;;;;;;4935275;29;20063;-74
2022/10/01 14:45:57;;;;;;;15.70;2.00;;;17.10;99.90;;;;;;4919641;29;20127;-75
2022/10/01 14:48:27;;;;;;;13.80;1.92;;;17.10;99.90;;;;;;4916506;29;20016;-75
2022/10/01 14:50:55;;;;;;;10.90;2.28;;;17.00;99.90;;;;;;4916547;29;20028;-75
2022/10/01 14:53:32;;;;;;;9.98;2.38;;;16.90;99.90;;;;;;4923110;29;20032;-74
2022/10/01 14:56:08;;;;;;;7.03;1.67;;;16.70;99.90;;;;;;4923847;29;20065;-74
2022/10/01 14:58:54;;;;;;;11.73;2.00;;;16.60;99.90;;;;;;4899613;29;20040;-75
2022/10/01 15:01:24;;;;;;;12.70;1.77;;;16.50;99.90;;;;;;4916443;29;20044;-75
2022/10/01 15:03:52;;;;;;;8.60;1.52;;;16.30;99.90;;;;;;4916813;29;20029;-75
2022/10/01 15:06:21;;;;;;;13.63;1.90;;;16.20;99.90;;;;;;4916328;29;20040;-74
2022/10/01 15:08:49;;;;;;;8.77;1.95;;;16.00;99.90;;;;;;4915358;29;20384;-74
2022/10/01 15:11:29;;;;;;;10.77;1.45;;;16.10;99.90;;;;;;4929773;29;20024;-75
2022/10/01 15:14:06;;;;;;;;;;;15.90;99.90;;;;;;4935712;29;20032;-74
2022/10/01 15:16:34;;;;;;;9.43;2.00;;;15.90;99.90;;;;;;4935649;29;19914;-74
2022/10/01 15:19:04;;;;;;;6.88;1.20;;;15.90;99.90;;;;;;4925095;29;20423;-74
2022/10/01 15:21:39;;;;;;;12.40;1.80;;;16.00;99.90;;;;;;4916366;29;20473;-74
2022/10/01 15:24:17;;;;;;;12.02;2.13;;;16.20;99.90;;;;;;4903053;29;20023;-74
2022/10/01 15:26:45;;;;;;;12.88;2.17;;;16.40;99.90;;;;;;4925990;29;20119;-74
2022/10/01 15:29:13;;;;;;;10.23;2.03;;;16.20;99.90;;;;;;4933740;29;20052;-74
2022/10/01 15:31:39;;;;;;;12.48;2.25;;;15.90;99.90;;;;;;4919746;29;20063;-73
2022/10/01 15:34:09;;;;;;;13.75;1.95;;;15.70;99.90;;;;;;4902489;29;20169;-74
2022/10/01 15:36:35;;;;;;;7.90;1.98;;;15.60;99.90;;;;;;4902682;29;20032;-74
2022/10/01 15:39:15;;;;;;;12.68;2.15;;;15.50;99.90;;;;;;4920307;29;20717;-73
2022/10/01 15:41:41;;;;;;;12.18;1.63;;;15.30;99.90;;;;;;4919721;29;20039;-74
2022/10/01 15:44:35;;;;;;;7.07;1.63;;;15.20;99.90;;;;;;4908137;29;20025;-73
2022/10/01 15:47:18;;;;;;;11.10;1.83;;;15.10;99.90;;;;;;4918414;29;20498;-73
2022/10/01 15:50:05;;;;;;;12.52;2.38;;;14.90;99.90;;;;;;4920112;29;20020;-74
2022/10/01 15:53:05;;;;;;;11.43;1.90;;;14.70;99.90;;;;;;4915757;29;20024;-73
2022/10/01 15:55:39;;;;;;;14.65;2.00;;;14.60;99.90;;;;;;4921281;29;20107;-74
2022/10/01 15:58:39;;;;;;;11.98;1.90;;;14.50;99.90;;;;;;4920927;29;20027;-74
2022/10/01 16:01:15;;;;;;;8.15;1.77;;;14.60;99.90;;;;;;4903635;29;20055;-74
2022/10/01 16:03:47;;;;;;;15.02;2.28;;;14.70;99.90;;;;;;4913716;29;20032;-74
2022/10/01 16:06:50;;;;;;;8.38;1.50;;;14.80;99.90;;;;;;4918953;29;20103;-74
2022/10/01 16:09:27;;;;;;;10.15;1.70;;;14.90;99.90;;;;;;4916867;29;20044;-74
2022/10/01 16:11:57;;;;;;;15.43;1.88;;;14.90;99.90;;;;;;4918888;29;20028;-74
2022/10/01 16:14:39;;;;;;;14.52;2.10;;;14.70;99.90;;;;;;4918453;29;20032;-74
2022/10/01 16:17:17;;;;;;;13.27;2.05;;;14.50;99.90;;;;;;4901840;29;20029;-74
2022/10/01 16:19:51;;;;;;;10.00;1.85;;;14.30;99.90;;;;;;4903365;29;20067;-74
2022/10/01 16:22:36;;;;;;;9.63;2.08;;;14.20;99.90;;;;;;4918197;29;20044;-74
2022/10/01 16:25:02;;;;;;;11.55;2.30;;;14.20;1.00;;;;;;4917895;29;20024;-73
2022/10/01 16:27:43;;;;;;;5.45;1.30;;;14.20;99.90;;;;;;4918690;29;20084;-75
2022/10/01 16:30:18;;;;;;;11.85;1.30;;;14.20;99.90;;;;;;4924779;29;20048;-74
2022/10/01 16:32:44;;;;;;;11.90;1.33;;;13.90;99.90;;;;;;4918074;29;20083;-74
2022/10/01 16:35:20;;;;;;;8.27;1.35;;;13.70;99.90;;;;;;4918251;29;20024;-73
2022/10/01 16:37:48;;;;;;;9.05;1.65;;;13.60;1.00;;;;;;4933057;29;20042;-74
2022/10/01 16:40:13;;;;;;;14.60;2.42;;;13.50;1.00;;;;;;4922602;29;20067;-73
2022/10/01 16:42:40;;;;;;;10.05;1.58;;;13.40;1.00;;;;;;4917962;29;20020;-74
2022/10/01 16:45:14;;;;;;;10.07;1.98;;;13.50;1.00;;;;;;4916760;29;20025;-74
2022/10/01 16:47:40;;;;;;;11.60;1.83;;;13.40;1.00;;;;;;4926175;29;20043;-74
2022/10/01 16:50:10;;;;;;;15.15;2.15;;;13.30;1.00;;;;;;4932258;29;20016;-74
2022/10/01 16:52:36;;;;;;;13.65;2.50;;;13.40;99.90;;;;;;4918543;29;20032;-74
2022/10/01 16:55:02;;;;;;;11.80;2.65;;;13.60;8.70;;;;;;4929592;29;20024;-74
2022/10/01 16:57:30;;;;;;;11.38;2.03;;;13.50;42.60;;;;;;4922578;29;20059;-74
2022/10/01 16:59:55;;;;;;;7.70;2.15;;;13.30;99.90;;;;;;4930466;29;20024;-75
2022/10/01 17:02:21;;;;;;;10.98;1.55;;;13.00;99.90;;;;;;4922854;29;20038;-75
2022/10/01 17:04:47;;;;;;;8.48;1.50;;;12.80;99.90;;;;;;4908035;29;20068;-75
2022/10/01 17:07:12;;;;;;;9.27;1.48;;;12.60;99.90;;;;;;4924635;29;20043;-75
2022/10/01 17:09:38;;;;;;;7.43;1.50;;;12.60;99.90;;;;;;4921742;29;20450;-75
2022/10/01 17:12:03;;;;;;;7.28;1.33;;;12.50;99.90;;;;;;4927251;29;20051;-75
2022/10/01 17:14:29;;;;;;;7.78;1.42;;;12.40;99.90;;;;;;4929317;29;20103;-75
2022/10/01 17:16:54;;;;;;;9.75;1.67;;;12.20;99.90;;;;;;4917318;29;20384;-75
2022/10/01 17:19:20;;;;;;;12.05;2.30;;;12.20;99.90;;;;;;4917855;29;20063;-75
2022/10/01 17:21:46;;;;;;;12.00;2.58;;;12.10;99.90;;;;;;4900792;29;20027;-74
2022/10/01 17:24:12;;;;;;;11.20;2.13;;;12.00;99.90;;;;;;4917656;29;20020;-75
2022/10/01 17:26:44;;;;;;;12.57;3.53;;;12.00;99.90;;;;;;4917616;29;20091;-74
2022/10/01 17:29:09;;;;;;;9.73;2.95;;;11.90;99.90;;;;;;4919067;29;20043;-75
2022/10/01 17:31:39;;;;;;;14.60;2.67;;;11.90;99.90;;;;;;4896470;29;20025;-75
2022/10/01 17:34:05;;;;;;;13.32;2.30;;;11.90;99.90;;;;;;4898275;29;20084;-75
2022/10/01 17:36:33;;;;;;;16.25;2.85;;;11.80;99.90;;;;;;4898277;29;20421;-75
2022/10/01 17:38:59;;;;;;;14.27;2.65;;;11.80;99.90;;;;;;4898865;29;20350;-75
2022/10/01 17:41:25;;;;;;;12.13;2.85;;;11.90;99.90;;;;;;4909759;29;20495;-74
2022/10/01 17:43:50;;;;;;;10.95;3.78;;;12.00;99.90;;;;;;4888998;29;20029;-74
2022/10/01 17:46:16;;;;;;;21.58;3.85;;;12.00;99.90;;;;;;4890280;29;20048;-75
2022/10/01 17:48:41;;;;;;;15.05;2.83;;;12.00;99.90;;;;;;4910952;29;20028;-79
2022/10/01 17:51:12;;;;;;;11.27;2.70;;;11.80;99.90;;;;;;4905256;29;20031;-78
2022/10/01 17:53:37;;;;;;;14.55;2.78;;;11.70;99.90;;;;;;4905617;29;20035;-76
2022/10/01 17:56:17;;;;;;;13.65;2.17;;;11.90;99.90;;;;;;4898642;29;20025;-76
2022/10/01 17:58:44;;;;;;;13.57;3.10;;;11.80;99.90;;;;;;4898492;29;20033;-75
2022/10/01 18:01:12;;;;;;;11.52;1.95;;;12.00;99.90;;;;;;4898327;29;20506;-74
2022/10/01 18:03:39;;;;;;;10.63;2.25;;;12.20;99.90;;;;;;4910783;29;20032;-72
2022/10/01 18:06:06;;;;;;;10.35;2.08;;;12.20;99.90;;;;;;4900352;29;20099;-71
2022/10/01 18:08:34;;;;;;;14.38;2.53;;;12.10;99.90;;;;;;4912242;29;20024;-75
2022/10/01 18:11:08;;;;;;;12.57;2.45;;;12.00;99.90;;;;;;4897953;29;20037;-74
2022/10/01 18:13:34;;;;;;;12.90;2.50;;;11.80;99.90;;;;;;4898149;29;20047;-77
2022/10/01 18:16:18;;;;;;;11.77;2.83;;;11.70;99.90;;;;;;4898359;29;20037;-71
2022/10/01 18:18:43;;;;;;;11.43;2.80;;;11.60;99.90;;;;;;4909050;29;20028;-68
2022/10/01 18:21:14;;;;;;;10.93;2.10;;;11.70;99.90;;;;;;4897691;29;20076;-70
2022/10/01 18:23:41;;;;;;;18.73;3.45;;;11.60;99.90;;;;;;4906776;29;20029;-76
2022/10/01 18:26:07;;;;;;;14.10;2.78;;;11.50;99.90;;;;;;4906966;29;20457;-75
2022/10/01 18:28:33;;;;;;;9.07;2.60;;;11.50;99.90;;;;;;4888761;29;20077;-75
2022/10/01 18:31:10;;;;;;;11.18;3.10;;;11.30;99.90;;;;;;4926453;29;20056;-75
2022/10/01 18:33:43;;;;;;;15.25;3.42;;;11.40;99.90;;;;;;4927105;29;20027;-74
2022/10/01 18:36:46;;;;;;;9.73;3.55;;;11.30;99.90;;;;;;4920150;29;20059;-75
2022/10/01 18:39:22;;;;;;;14.93;3.80;;;11.40;99.90;;;;;;4856762;29;20046;-75
2022/10/01 18:41:49;;;;;;;13.02;4.45;;;11.20;99.90;;;;;;4926014;29;20088;-75
2022/10/01 18:44:17;;;;;;;14.43;2.95;;;11.20;99.90;;;;;;4919576;29;20032;-75
2022/10/01 18:46:56;;;;;;;13.23;2.88;;;11.20;99.90;;;;;;4921471;29;20035;-76
2022/10/01 18:49:30;;;;;;;11.80;2.60;;;11.20;99.90;;;;;;4925918;29;20028;-74
2022/10/01 18:52:14;;;;;;;9.45;2.58;;;11.30;99.90;;;;;;4919563;29;20037;-74
2022/10/01 18:54:53;;;;;;;16.00;3.00;;;11.20;99.90;;;;;;4907324;29;20072;-74
2022/10/01 18:57:43;;;;;;;12.68;2.35;;;11.20;99.90;;;;;;4919606;29;20028;-74